createdAt,value
2018-12-22T00:01:10.639Z,2.60
2018-12-22T00:03:39.386Z,2.50
2018-12-22T00:06:07.914Z,3.20
2018-12-22T00:08:36.555Z,3.50
2018-12-22T00:11:05.356Z,3.77
2018-12-22T00:13:33.831Z,3.47
2018-12-22T00:16:02.359Z,4.30
2018-12-22T00:18:30.859Z,4.37
2018-12-22T00:20:59.586Z,4.40
2018-12-22T00:23:28.340Z,4.43
2018-12-22T00:25:56.818Z,4.83
2018-12-22T00:28:25.315Z,4.40
2018-12-22T00:30:53.818Z,4.77
2018-12-22T00:33:22.341Z,4.43
2018-12-22T00:35:51.044Z,4.80
2018-12-22T00:38:19.523Z,4.00
2018-12-22T00:40:48.025Z,4.67
2018-12-22T00:43:16.511Z,4.07
2018-12-22T00:45:44.989Z,4.07
2018-12-22T00:48:13.591Z,4.13
2018-12-22T00:50:42.207Z,4.07
2018-12-22T00:53:10.687Z,4.10
2018-12-22T00:55:39.199Z,4.17
2018-12-22T00:58:07.695Z,3.53
2018-12-22T01:00:36.191Z,3.87
2018-12-22T01:03:04.679Z,3.87
2018-12-22T01:05:33.428Z,3.57
2018-12-22T01:08:01.926Z,3.63
2018-12-22T01:10:30.428Z,3.30
2018-12-22T01:12:59.099Z,3.80
2018-12-22T01:15:27.591Z,3.23
2018-12-22T01:17:56.079Z,2.90
2018-12-22T01:20:24.561Z,3.17
2018-12-22T01:22:53.187Z,3.30
2018-12-22T01:25:21.678Z,3.03
2018-12-22T01:27:50.290Z,2.90
2018-12-22T01:30:18.784Z,3.03
2018-12-22T01:32:47.270Z,2.60
2018-12-22T01:35:15.775Z,2.90
2018-12-22T01:37:44.254Z,2.50
2018-12-22T01:40:12.949Z,2.60
2018-12-22T01:42:41.445Z,2.50
2018-12-22T01:45:10.094Z,2.80
2018-12-22T01:47:38.794Z,2.50
2018-12-22T01:50:08.169Z,2.53
2018-12-22T01:52:36.667Z,2.43
2018-12-22T01:55:05.647Z,2.40
2018-12-22T01:57:34.435Z,2.50
2018-12-22T02:00:02.967Z,2.27
2018-12-22T02:02:31.455Z,2.20
2018-12-22T02:05:00.063Z,2.17
2018-12-22T02:07:28.547Z,2.10
2018-12-22T02:09:57.045Z,2.37
2018-12-22T02:12:25.522Z,2.17
2018-12-22T02:14:54.029Z,2.50
2018-12-22T02:17:22.656Z,2.37
2018-12-22T02:19:51.270Z,2.03
2018-12-22T02:22:19.774Z,2.40
2018-12-22T02:24:48.280Z,2.27
2018-12-22T02:27:16.755Z,2.07
2018-12-22T02:29:45.239Z,2.00
2018-12-22T02:32:13.719Z,1.83
2018-12-22T02:34:42.230Z,2.07
2018-12-22T02:37:10.905Z,1.80
2018-12-22T02:39:39.411Z,2.10
2018-12-22T02:42:07.915Z,2.00
2018-12-22T02:44:36.416Z,1.90
2018-12-22T02:47:05.026Z,1.73
2018-12-22T02:49:33.521Z,1.83
2018-12-22T02:52:02.021Z,2.10
2018-12-22T02:54:30.514Z,1.90
2018-12-22T02:56:59.004Z,1.90
2018-12-22T02:59:27.495Z,1.63
2018-12-22T03:01:56.123Z,1.73
2018-12-22T03:04:24.634Z,1.80
2018-12-22T03:06:53.134Z,1.53
2018-12-22T03:09:21.631Z,1.50
2018-12-22T03:11:50.127Z,1.70
2018-12-22T03:14:18.619Z,1.90
2018-12-22T03:16:47.107Z,1.70
2018-12-22T03:19:15.855Z,1.80
2018-12-22T03:21:44.369Z,1.70
2018-12-22T03:24:13.007Z,1.60
2018-12-22T03:26:41.495Z,1.23
2018-12-22T03:29:15.502Z,1.70
2018-12-22T03:31:40.747Z,1.47
2018-12-22T03:34:09.391Z,1.70
2018-12-22T03:36:38.014Z,1.80
2018-12-22T03:39:08.379Z,1.60
2018-12-22T03:41:36.994Z,1.70
2018-12-22T03:44:05.508Z,1.60
2018-12-22T03:46:34.071Z,1.37
2018-12-22T03:49:02.579Z,1.53
2018-12-22T03:51:31.087Z,1.57
2018-12-22T03:53:59.707Z,1.40
2018-12-22T03:56:28.206Z,1.47
2018-12-22T03:58:56.708Z,1.60
2018-12-22T04:01:25.190Z,1.63
2018-12-22T04:03:53.835Z,1.70
2018-12-22T04:06:22.326Z,1.50
2018-12-22T04:08:50.846Z,1.77
2018-12-22T04:11:19.374Z,1.40
2018-12-22T04:13:47.880Z,1.70
2018-12-22T04:16:16.513Z,1.57
2018-12-22T04:18:45.023Z,1.50
2018-12-22T04:21:13.503Z,1.50
2018-12-22T04:23:42.011Z,1.43
2018-12-22T04:26:10.500Z,1.43
2018-12-22T04:28:39.278Z,1.60
2018-12-22T04:31:07.766Z,1.60
2018-12-22T04:33:36.271Z,1.33
2018-12-22T04:36:04.902Z,1.57
2018-12-22T04:38:33.399Z,1.70
2018-12-22T04:41:01.891Z,1.60
2018-12-22T04:43:30.408Z,1.63
2018-12-22T04:45:58.918Z,1.50
2018-12-22T04:48:27.451Z,1.50
2018-12-22T04:50:55.945Z,1.57
2018-12-22T04:53:24.655Z,1.60
2018-12-22T04:55:53.147Z,1.73
2018-12-22T04:58:21.630Z,1.67
2018-12-22T05:00:50.126Z,2.00
2018-12-22T05:03:18.760Z,1.80
2018-12-22T05:05:47.378Z,1.80
2018-12-22T05:08:15.883Z,1.63
2018-12-22T05:10:44.615Z,1.90
2018-12-22T05:13:13.187Z,1.60
2018-12-22T05:15:41.667Z,1.67
2018-12-22T05:18:10.163Z,1.87
2018-12-22T05:20:38.663Z,1.57
2018-12-22T05:23:07.156Z,1.70
2018-12-22T05:25:35.872Z,1.63
2018-12-22T05:28:04.493Z,1.90
2018-12-22T05:30:33.269Z,1.80
2018-12-22T05:33:01.771Z,1.63
2018-12-22T05:35:30.259Z,1.80
2018-12-22T05:37:58.782Z,1.90
2018-12-22T05:40:27.386Z,1.63
2018-12-22T05:42:55.887Z,1.97
2018-12-22T05:45:24.640Z,1.90
2018-12-22T05:47:53.235Z,1.73
2018-12-22T05:50:21.871Z,1.80
2018-12-22T05:52:50.358Z,2.17
2018-12-22T05:55:18.859Z,1.70
2018-12-22T05:57:47.366Z,1.80
2018-12-22T06:00:15.851Z,1.63
2018-12-22T06:02:44.371Z,2.00
2018-12-22T06:05:12.991Z,1.80
2018-12-22T06:07:41.486Z,1.60
2018-12-22T06:10:10.139Z,2.07
2018-12-22T06:12:38.643Z,1.77
2018-12-22T06:15:07.499Z,2.00
2018-12-22T06:17:36.143Z,1.90
2018-12-22T06:20:06.034Z,1.73
2018-12-22T06:22:34.519Z,1.70
2018-12-22T06:25:03.224Z,1.50
2018-12-22T06:27:31.990Z,2.10
2018-12-22T06:30:08.943Z,1.80
2018-12-22T06:32:31.407Z,1.87
2018-12-22T06:35:00.012Z,2.03
2018-12-22T06:37:28.589Z,1.87
2018-12-22T06:39:57.123Z,1.87
2018-12-22T06:42:25.606Z,1.83
2018-12-22T06:44:54.274Z,2.10
2018-12-22T06:47:22.786Z,1.97
2018-12-22T06:49:51.295Z,2.10
2018-12-22T06:52:19.783Z,1.80
2018-12-22T06:54:48.263Z,1.97
2018-12-22T06:57:16.860Z,2.10
2018-12-22T06:59:45.354Z,2.00
2018-12-22T07:02:13.850Z,2.07
2018-12-22T07:04:42.334Z,1.90
2018-12-22T07:07:10.811Z,2.13
2018-12-22T07:09:39.455Z,1.70
2018-12-22T07:12:07.954Z,1.80
2018-12-22T07:14:36.459Z,1.90
2018-12-22T07:17:04.959Z,1.80
2018-12-22T07:19:33.475Z,1.60
2018-12-22T07:22:01.965Z,1.93
2018-12-22T07:24:30.562Z,2.10
2018-12-22T07:26:59.048Z,2.07
2018-12-22T07:29:27.569Z,1.77
2018-12-22T07:31:56.059Z,1.83
2018-12-22T07:34:24.574Z,2.17
2018-12-22T07:36:53.069Z,1.90
2018-12-22T07:39:21.850Z,2.10
2018-12-22T07:41:50.326Z,2.20
2018-12-22T07:44:18.815Z,2.20
2018-12-22T07:46:47.312Z,2.00
2018-12-22T07:49:15.826Z,2.23
2018-12-22T07:51:44.307Z,2.30
2018-12-22T07:56:37.551Z,2.23
2018-12-22T07:59:06.193Z,1.97
2018-12-22T08:01:34.703Z,1.90
2018-12-22T08:04:03.338Z,2.17
2018-12-22T08:06:31.874Z,1.97
2018-12-22T08:09:00.346Z,2.13
2018-12-22T08:11:28.835Z,1.93
2018-12-22T08:13:57.322Z,1.77
2018-12-22T08:16:25.823Z,1.90
2018-12-22T08:18:54.415Z,1.97
2018-12-22T08:21:22.955Z,2.30
2018-12-22T08:23:51.438Z,2.07
2018-12-22T08:26:20.038Z,2.00
2018-12-22T08:28:48.559Z,2.03
2018-12-22T08:31:17.169Z,2.00
2018-12-22T08:33:45.677Z,1.87
2018-12-22T08:36:14.216Z,2.07
2018-12-22T08:38:42.848Z,2.20
2018-12-22T08:41:11.356Z,1.80
2018-12-22T08:43:39.863Z,1.73
2018-12-22T08:46:08.382Z,2.07
2018-12-22T08:48:36.898Z,1.90
2018-12-22T08:51:05.436Z,1.73
2018-12-22T08:53:34.064Z,1.90
2018-12-22T08:56:02.568Z,1.60
2018-12-22T08:58:31.084Z,2.00
2018-12-22T09:00:59.717Z,2.00
2018-12-22T09:03:28.416Z,2.17
2018-12-22T09:05:56.923Z,1.83
2018-12-22T09:08:25.468Z,2.03
2018-12-22T09:10:54.000Z,3.30
2018-12-22T09:13:23.014Z,3.50
2018-12-22T09:15:51.510Z,4.40
2018-12-22T09:18:20.043Z,5.73
2018-12-22T09:20:48.582Z,6.37
2018-12-22T09:23:17.103Z,7.03
2018-12-22T09:25:45.618Z,7.57
2018-12-22T09:28:14.139Z,8.90
2018-12-22T09:30:42.706Z,9.63
2018-12-22T09:33:11.349Z,10.30
2018-12-22T09:35:39.896Z,10.70
2018-12-22T09:38:08.422Z,11.90
2018-12-22T09:40:37.063Z,12.77
2018-12-22T09:43:05.566Z,12.60
2018-12-22T09:45:34.085Z,12.27
2018-12-22T09:48:02.613Z,13.47
2018-12-22T09:50:31.211Z,13.63
2018-12-22T09:52:59.839Z,12.93
2018-12-22T09:55:28.484Z,12.37
2018-12-22T09:57:56.973Z,13.10
2018-12-22T10:00:25.575Z,12.50
2018-12-22T10:02:54.067Z,12.20
2018-12-22T10:05:22.558Z,11.80
2018-12-22T10:07:51.055Z,11.53
2018-12-22T10:10:19.766Z,11.83
2018-12-22T10:12:48.259Z,11.40
2018-12-22T10:15:16.771Z,10.50
2018-12-22T10:17:45.403Z,10.27
2018-12-22T10:20:14.027Z,9.67
2018-12-22T10:22:42.588Z,9.00
2018-12-22T10:25:11.619Z,9.03
2018-12-22T10:27:40.122Z,9.27
2018-12-22T10:30:14.643Z,9.13
2018-12-22T10:32:43.138Z,8.60
2018-12-22T10:35:15.639Z,8.97
2018-12-22T10:37:44.131Z,7.60
2018-12-22T10:40:12.744Z,6.97
2018-12-22T10:42:41.243Z,7.53
2018-12-22T10:45:09.872Z,7.07
2018-12-22T10:47:38.367Z,6.50
2018-12-22T10:50:07.036Z,6.50
2018-12-22T10:52:35.562Z,6.43
2018-12-22T10:55:04.466Z,6.17
2018-12-22T10:57:32.953Z,6.10
2018-12-22T11:00:01.563Z,5.80
2018-12-22T11:02:30.159Z,5.67
2018-12-22T11:04:58.683Z,5.60
2018-12-22T11:07:27.184Z,5.03
2018-12-22T11:09:55.688Z,5.20
2018-12-22T11:12:24.446Z,5.10
2018-12-22T11:14:53.036Z,4.77
2018-12-22T11:17:21.655Z,4.60
2018-12-22T11:19:50.252Z,4.77
2018-12-22T11:22:18.731Z,4.40
2018-12-22T11:24:47.212Z,4.30
2018-12-22T11:27:15.823Z,4.13
2018-12-22T11:29:44.502Z,3.70
2018-12-22T11:32:13.186Z,3.97
2018-12-22T11:34:41.756Z,3.47
2018-12-22T11:37:10.387Z,3.70
2018-12-22T11:39:38.875Z,3.37
2018-12-22T11:42:07.339Z,3.70
2018-12-22T11:44:36.171Z,3.67
2018-12-22T11:47:15.686Z,3.33
2018-12-22T11:49:44.496Z,3.03
2018-12-22T11:52:13.289Z,3.40
2018-12-22T11:54:41.783Z,3.23
2018-12-22T11:57:10.402Z,3.13
2018-12-22T11:59:39.045Z,3.17
2018-12-22T12:02:09.903Z,3.10
2018-12-22T12:04:38.087Z,2.40
2018-12-22T12:07:06.611Z,3.00
2018-12-22T12:09:35.110Z,2.57
2018-12-22T12:12:03.875Z,2.90
2018-12-22T12:14:32.823Z,2.67
2018-12-22T12:17:12.512Z,2.57
2018-12-22T12:19:41.135Z,2.77
2018-12-22T12:22:09.707Z,2.80
2018-12-22T12:24:38.245Z,2.53
2018-12-22T12:27:06.783Z,2.90
2018-12-22T12:29:35.275Z,2.40
2018-12-22T12:32:03.837Z,2.53
2018-12-22T12:34:32.327Z,2.63
2018-12-22T12:37:00.815Z,2.30
2018-12-22T12:39:29.310Z,2.33
2018-12-22T12:41:58.224Z,2.43
2018-12-22T12:44:26.931Z,2.40
2018-12-22T12:46:55.783Z,2.57
2018-12-22T12:49:24.722Z,2.87
2018-12-22T12:51:53.219Z,2.53
2018-12-22T12:54:22.380Z,2.30
2018-12-22T12:56:53.456Z,2.60
2018-12-22T12:59:22.482Z,2.70
2018-12-22T13:01:50.991Z,2.40
2018-12-22T13:04:19.487Z,2.60
2018-12-22T13:06:48.011Z,2.40
2018-12-22T13:09:16.895Z,2.70
2018-12-22T13:11:45.543Z,2.50
2018-12-22T13:14:19.251Z,2.20
2018-12-22T13:16:47.870Z,2.53
2018-12-22T13:19:16.487Z,2.40
2018-12-22T13:21:53.503Z,2.20
2018-12-22T13:24:22.028Z,2.30
2018-12-22T13:26:50.542Z,2.43
2018-12-22T13:29:19.184Z,2.40
2018-12-22T13:31:47.883Z,2.43
2018-12-22T13:34:16.452Z,2.50
2018-12-22T13:36:45.055Z,2.20
2018-12-22T13:39:19.934Z,2.30
2018-12-22T13:41:48.432Z,2.03
2018-12-22T13:44:17.039Z,2.40
2018-12-22T13:46:45.575Z,2.20
2018-12-22T13:49:14.320Z,2.23
2018-12-22T13:51:45.007Z,2.10
2018-12-22T13:54:16.339Z,2.10
2018-12-22T13:56:44.811Z,2.37
2018-12-22T13:59:13.303Z,1.93
2018-12-22T14:01:47.227Z,2.30
2018-12-22T14:04:15.707Z,2.20
2018-12-22T14:06:45.607Z,2.33
2018-12-22T14:09:14.114Z,2.20
2018-12-22T14:11:43.283Z,2.07
2018-12-22T14:14:18.230Z,2.23
2018-12-22T14:16:57.146Z,1.90
2018-12-22T14:19:25.953Z,1.97
2018-12-22T14:21:54.542Z,2.30
2018-12-22T14:24:43.076Z,2.10
2018-12-22T14:27:11.778Z,2.20
2018-12-22T14:29:40.259Z,2.07
2018-12-22T14:32:08.875Z,2.17
2018-12-22T14:36:44.699Z,2.33
2018-12-22T14:39:13.199Z,2.33
2018-12-22T14:41:41.751Z,2.20
2018-12-22T14:44:10.255Z,1.97
2018-12-22T14:46:38.879Z,2.60
2018-12-22T14:49:07.686Z,2.07
2018-12-22T14:51:36.188Z,2.00
2018-12-22T14:54:04.707Z,2.27
2018-12-22T14:56:39.036Z,2.20
2018-12-22T14:59:08.952Z,2.17
2018-12-22T15:01:37.592Z,2.10
2018-12-22T15:04:06.112Z,2.10
2018-12-22T15:06:34.635Z,2.20
2018-12-22T15:09:13.117Z,2.30
2018-12-22T15:11:35.195Z,2.20
2018-12-22T15:14:03.710Z,2.10
2018-12-22T15:16:32.315Z,2.30
2018-12-22T15:19:00.823Z,2.20
2018-12-22T15:21:29.333Z,2.00
2018-12-22T15:23:58.039Z,2.30
2018-12-22T15:26:26.550Z,2.10
2018-12-22T15:28:55.159Z,2.00
2018-12-22T15:31:23.658Z,2.43
2018-12-22T15:33:52.292Z,2.60
2018-12-22T15:36:21.143Z,2.03
2018-12-22T15:38:49.789Z,2.30
2018-12-22T15:41:18.274Z,2.27
2018-12-22T15:43:46.762Z,1.93
2018-12-22T15:46:15.419Z,2.23
2018-12-22T15:48:43.916Z,2.40
2018-12-22T15:51:12.416Z,2.00
2018-12-22T15:53:40.972Z,2.37
2018-12-22T15:56:09.481Z,2.30
2018-12-22T15:58:38.028Z,2.17
2018-12-22T16:01:06.539Z,2.07
2018-12-22T16:03:35.161Z,2.00
2018-12-22T16:06:03.682Z,2.53
2018-12-22T16:08:32.174Z,2.90
2018-12-22T16:11:01.017Z,4.60
2018-12-22T16:13:29.495Z,4.27
2018-12-22T16:15:58.002Z,8.23
2018-12-22T16:18:26.507Z,8.87
2018-12-22T16:20:54.991Z,8.13
2018-12-22T16:23:23.475Z,7.60
2018-12-22T16:25:52.045Z,7.50
2018-12-22T16:28:23.155Z,7.27
2018-12-22T16:30:54.550Z,6.60
2018-12-22T16:33:23.100Z,5.87
2018-12-22T16:35:51.698Z,5.60
2018-12-22T16:38:20.242Z,5.80
2018-12-22T16:40:48.883Z,5.20
2018-12-22T16:43:18.514Z,5.10
2018-12-22T16:45:49.859Z,4.70
2018-12-22T16:48:19.916Z,7.70
2018-12-22T16:50:48.646Z,5.20
2018-12-22T16:53:17.255Z,5.23
2018-12-22T16:55:45.771Z,5.27
2018-12-22T16:58:21.315Z,4.63
2018-12-22T17:00:56.662Z,4.33
2018-12-22T17:03:25.167Z,5.10
2018-12-22T17:05:53.703Z,5.17
2018-12-22T17:08:22.219Z,4.63
2018-12-22T17:10:55.134Z,4.30
2018-12-22T17:13:23.651Z,4.67
2018-12-22T17:15:57.870Z,4.60
2018-12-22T17:18:27.114Z,4.40
2018-12-22T17:21:05.351Z,4.43
2018-12-22T17:23:43.131Z,5.97
2018-12-22T17:26:11.727Z,6.17
2018-12-22T17:28:40.223Z,6.17
2018-12-22T17:31:09.015Z,6.30
2018-12-22T17:33:37.535Z,5.70
2018-12-22T17:36:06.532Z,5.63
2018-12-22T17:38:35.205Z,5.33
2018-12-22T17:41:03.947Z,5.90
2018-12-22T17:43:32.949Z,5.07
2018-12-22T17:46:01.450Z,5.10
2018-12-22T17:48:29.954Z,5.43
2018-12-22T17:50:58.595Z,5.00
2018-12-22T17:53:27.076Z,4.37
2018-12-22T17:55:55.693Z,4.73
2018-12-22T17:58:24.191Z,4.23
2018-12-22T18:00:52.723Z,4.57
2018-12-22T18:03:27.353Z,4.50
2018-12-22T18:05:53.614Z,17.63
2018-12-22T18:08:22.127Z,9.80
2018-12-22T18:10:50.620Z,8.33
2018-12-22T18:13:19.115Z,8.77
2018-12-22T18:15:47.606Z,8.70
2018-12-22T18:18:16.153Z,7.70
2018-12-22T18:20:44.666Z,7.63
2018-12-22T18:23:13.274Z,7.90
2018-12-22T18:25:42.081Z,7.53
2018-12-22T18:28:10.571Z,6.83
2018-12-22T18:30:39.065Z,7.30
2018-12-22T18:33:07.559Z,7.83
2018-12-22T18:35:36.119Z,6.67
2018-12-22T18:38:04.935Z,6.00
2018-12-22T18:40:33.619Z,5.93
2018-12-22T18:43:02.223Z,6.27
2018-12-22T18:45:30.990Z,6.67
2018-12-22T18:47:59.478Z,5.43
2018-12-22T18:50:28.374Z,5.80
2018-12-22T18:52:56.874Z,5.87
2018-12-22T18:58:03.968Z,5.60
2018-12-22T19:00:33.328Z,5.17
2018-12-22T19:03:02.086Z,5.20
2018-12-22T19:05:30.587Z,5.30
2018-12-22T19:08:03.495Z,4.97
2018-12-22T19:10:37.716Z,5.20
2018-12-22T19:13:06.262Z,4.83
2018-12-22T19:15:34.758Z,5.10
2018-12-22T19:18:03.242Z,4.90
2018-12-22T19:20:36.946Z,4.50
2018-12-22T19:23:05.715Z,4.50
2018-12-22T19:25:34.219Z,4.70
2018-12-22T19:28:02.827Z,4.30
2018-12-22T19:30:31.315Z,4.53
2018-12-22T19:32:59.819Z,4.30
2018-12-22T19:35:28.443Z,4.37
2018-12-22T19:37:56.996Z,4.33
2018-12-22T19:40:25.491Z,4.10
2018-12-22T19:42:53.962Z,4.27
2018-12-22T19:45:22.460Z,4.00
2018-12-22T19:47:50.950Z,3.77
2018-12-22T19:50:19.475Z,4.03
2018-12-22T19:52:48.148Z,3.97
2018-12-22T19:55:16.636Z,3.90
2018-12-22T19:57:45.270Z,3.63
2018-12-22T20:00:13.771Z,3.83
2018-12-22T20:02:42.247Z,4.77
2018-12-22T20:05:10.756Z,4.57
2018-12-22T20:07:39.268Z,4.33
2018-12-22T20:10:07.963Z,4.80
2018-12-22T20:12:36.479Z,21.67
2018-12-22T20:15:05.430Z,36.67
2018-12-22T20:17:33.927Z,34.10
2018-12-22T20:20:02.437Z,30.50
2018-12-22T20:22:30.936Z,25.10
2018-12-22T20:24:59.503Z,23.00
2018-12-22T20:27:28.131Z,18.93
2018-12-22T20:29:56.674Z,17.77
2018-12-22T20:32:25.191Z,17.20
2018-12-22T20:34:53.803Z,15.87
2018-12-22T20:37:22.287Z,14.53
2018-12-22T20:39:50.770Z,13.03
2018-12-22T20:42:19.267Z,12.03
2018-12-22T20:44:47.762Z,11.43
2018-12-22T20:47:16.370Z,10.60
2018-12-22T20:49:44.859Z,10.20
2018-12-22T20:52:13.335Z,9.30
2018-12-22T20:54:41.964Z,8.77
2018-12-22T20:57:10.474Z,8.53
2018-12-22T20:59:39.008Z,8.23
2018-12-22T21:02:07.737Z,7.67
2018-12-22T21:04:36.457Z,7.67
2018-12-22T21:07:04.945Z,7.47
2018-12-22T21:09:33.447Z,6.70
2018-12-22T21:12:01.960Z,7.03
2018-12-22T21:14:30.459Z,6.70
2018-12-22T21:16:59.072Z,6.50
2018-12-22T21:19:27.558Z,5.97
2018-12-22T21:21:56.062Z,5.57
2018-12-22T21:24:24.547Z,6.33
2018-12-22T21:26:53.050Z,5.93
2018-12-22T21:29:21.682Z,5.93
2018-12-22T21:31:50.298Z,5.83
2018-12-22T21:34:18.836Z,6.40
2018-12-22T21:36:47.337Z,5.00
2018-12-22T21:39:15.842Z,5.60
2018-12-22T21:41:44.316Z,5.10
2018-12-22T21:44:12.819Z,5.17
2018-12-22T21:46:41.327Z,5.60
2018-12-22T21:49:09.861Z,4.87
2018-12-22T21:51:38.475Z,4.70
2018-12-22T21:54:07.279Z,5.10
2018-12-22T21:56:35.802Z,4.73
2018-12-22T21:59:04.408Z,4.60
2018-12-22T22:01:32.887Z,4.90
2018-12-22T22:04:01.543Z,4.23
2018-12-22T22:06:30.022Z,5.27
2018-12-22T22:08:58.522Z,4.33
2018-12-22T22:11:27.011Z,4.33
2018-12-22T22:13:55.499Z,4.53
2018-12-22T22:16:24.234Z,3.87
2018-12-22T22:18:52.715Z,4.23
2018-12-22T22:21:21.218Z,4.00
2018-12-22T22:23:49.819Z,3.77
2018-12-22T22:26:18.434Z,3.57
2018-12-22T22:28:46.916Z,3.33
2018-12-22T22:31:15.531Z,4.07
2018-12-22T22:33:44.029Z,4.30
2018-12-22T22:38:37.122Z,4.50
2018-12-22T22:41:05.635Z,4.33
2018-12-22T22:43:34.127Z,4.87
2018-12-22T22:46:02.614Z,4.70
2018-12-22T22:48:31.119Z,4.20
2018-12-22T22:50:59.593Z,4.40
2018-12-22T22:53:28.067Z,4.60
2018-12-22T22:55:56.555Z,3.77
2018-12-22T22:58:25.032Z,4.00
2018-12-22T23:00:53.534Z,4.10
2018-12-22T23:03:22.039Z,3.73
2018-12-22T23:05:50.548Z,4.10
2018-12-22T23:08:19.074Z,3.43
2018-12-22T23:10:47.566Z,3.90
2018-12-22T23:13:16.059Z,3.07
2018-12-22T23:15:44.555Z,3.30
2018-12-22T23:18:13.079Z,3.50
2018-12-22T23:20:41.596Z,2.93
2018-12-22T23:23:10.080Z,2.80
2018-12-22T23:25:38.561Z,2.87
2018-12-22T23:28:07.055Z,3.03
2018-12-22T23:30:35.535Z,3.20
2018-12-22T23:33:04.019Z,3.23
2018-12-22T23:35:32.630Z,3.33
2018-12-22T23:38:01.122Z,3.03
2018-12-22T23:40:29.735Z,2.70
2018-12-22T23:42:58.243Z,3.00
2018-12-22T23:45:26.735Z,2.53
2018-12-22T23:47:55.227Z,2.37
2018-12-22T23:50:23.695Z,2.87
2018-12-22T23:52:52.303Z,2.47
2018-12-22T23:55:20.927Z,2.67
2018-12-22T23:57:49.399Z,2.37
